Погода Егоровна 2 недели

Ростовская область, Россия

21 мая-03 июня
  • 21мая
    Сегодня
    +15°
    +25°
    Практически безоблачно
    ВремяПогодаТемператураВлажностьДавлениеВетер, м/сВероятность осадков
    00:00Ясно и безоблачно+16°C58 %761 мм1.3 м/с2 %
    03:00Ясно и безоблачно+15°C75 %762 мм1.5 м/с2 %
    06:00Ясно и безоблачно+16°C78 %762 мм1.4 м/с2 %
    09:00Ясно и безоблачно+20°C47 %763 мм1.6 м/с2 %
    12:00Практически безоблачно+23°C31 %763 мм2.1 м/с2 %
    15:00Практически безоблачно+25°C26 %762 мм2.5 м/с2 %
    18:00Ясно и безоблачно+24°C30 %761 мм1.3 м/с2 %
    21:00Ясно и безоблачно+21°C49 %762 мм1.1 м/с2 %
  • 22мая
    Среда
    +15°
    +26°
    Небольшая облачность
    ВремяПогодаТемператураВлажностьДавлениеВетер, м/сВероятность осадков
    00:00Облачно с прояснениями+17°C58 %761 мм1.3 м/с2 %
    03:00Облачно с прояснениями+16°C71 %761 мм1.2 м/с2 %
    06:00Облачно с прояснениями+17°C67 %762 мм1.2 м/с2 %
    09:00Облачно с прояснениями+22°C34 %762 мм1.6 м/с2 %
    12:00Облачно с прояснениями+25°C24 %761 мм2.5 м/с2 %
    15:00Небольшая облачность+26°C25 %760 мм2.9 м/с2 %
    18:00Ясно и безоблачно+25°C32 %759 мм1.6 м/с2 %
    21:00Ясно и безоблачно+21°C59 %760 мм1.8 м/с2 %
  • 23мая
    Четверг
    +15°
    +25°
    Ясно и безоблачно
    ВремяПогодаТемператураВлажностьДавлениеВетер, м/сВероятность осадков
    00:00Ясно и безоблачно+18°C59 %759 мм1.9 м/с2 %
    03:00Ясно и безоблачно+16°C53 %759 мм1.8 м/с2 %
    06:00Ясно и безоблачно+17°C58 %760 мм1.4 м/с2 %
    09:00Ясно и безоблачно+22°C40 %760 мм2.1 м/с2 %
    12:00Ясно и безоблачно+24°C28 %760 мм2.5 м/с2 %
    15:00Ясно и безоблачно+25°C26 %759 мм3.0 м/с2 %
    18:00Ясно и безоблачно+24°C30 %758 мм2.8 м/с3 %
    21:00Ясно и безоблачно+20°C56 %759 мм3.6 м/с2 %
  • 24мая
    Пятница
    +12°
    +23°
    Ясно и безоблачно
    ВремяПогодаТемператураВлажностьДавлениеВетер, м/сВероятность осадков
    00:00Ясно и безоблачно+18°C65 %760 мм4.2 м/с2 %
    03:00Ясно и безоблачно+16°C75 %761 мм5.1 м/с2 %
    06:00Практически безоблачно+16°C53 %762 мм4.7 м/с2 %
    09:00Ясно и безоблачно+18°C46 %764 мм6.0 м/с2 %
    12:00Ясно и безоблачно+21°C36 %764 мм6.1 м/с2 %
    15:00Ясно и безоблачно+22°C31 %764 мм6.0 м/с2 %
    18:00Ясно и безоблачно+21°C27 %765 мм5.1 м/с2 %
    21:00Ясно и безоблачно+18°C33 %766 мм4.9 м/с2 %
  • 25мая
    Суббота
    +14°
    +23°
    Ясно и безоблачно
    ВремяПогодаТемператураВлажностьДавлениеВетер, м/сВероятность осадков
    00:00Ясно и безоблачно+15°C35 %767 мм5.0 м/с2 %
    03:00Ясно и безоблачно+13°C38 %768 мм4.9 м/с2 %
    06:00Ясно и безоблачно+13°C41 %768 мм4.3 м/с2 %
    09:00Ясно и безоблачно+17°C28 %769 мм5.8 м/с2 %
    12:00Ясно и безоблачно+21°C24 %768 мм5.6 м/с2 %
    15:00Ясно и безоблачно+22°C22 %767 мм5.5 м/с2 %
    18:00Облачно с прояснениями+21°C24 %766 мм4.7 м/с2 %
    21:00Облачно с прояснениями+19°C32 %766 мм4.5 м/с2 %
Мы используем cookies
Соглашаюсь